• Join FlightAware (Why Join?)
  • Login
  • US Flag 
05:17AM EDT


 

Airport Tracker/Info


-or-


 

Live Flight TrackerFlight Track Log ✈ SKW5550 ✈ 12-Oct-2013 ✈ KDEN - KSMF

Flight Track Log - Related Links

Times and Time Zones

All times are in EDT time to prevent confusion due to time zone crossing. See the SKW5550 flight status page for this flight to view local times or setup timezone preferences in your user account.

Time Position Orientation Groundspeed Altitude Reporting Facility
EDT Latitude Longitude Course Direction KTS MPH feet Rate Location/Type
05:17PM 39.8000 -104.6667 270° West 187 215 7,400  Level Denver TRACON
05:18PM 39.7500 -104.7000 207° Southwest 223 257 9,100 1,920 Climbing Denver TRACON
05:19PM 39.6833 -104.7500 210° Southwest 275 316 11,300 2,220 Climbing Denver TRACON
05:20PM 39.7000 -104.8794 280° West 282 325 14,800 2,400 Climbing Denver Center
05:21PM 39.7319 -104.9739 294° West 283 326 17,200 1,860 Climbing Denver Center
05:22PM 39.8627 -105.3505 270° West  Level Estimated
05:22PM 39.7661 -105.0722 294° West 299 344 18,700  Level Denver Center
05:23PM 39.8050 -105.1836 294° West 314 361 20,800 1,920 Climbing Denver Center
05:24PM 39.8397 -105.2881 293° West 314 361 22,700 1,800 Climbing Denver Center
05:25PM 39.8789 -105.4025 294° West 321 369 24,600 1,680 Climbing Denver Center
05:26PM 39.9131 -105.5125 292° West 331 381 26,200 1,320 Climbing Denver Center
05:27PM 39.9281 -105.6278 280° West 325 374 27,400 1,200 Climbing Denver Center
05:28PM 39.9453 -105.7453 281° West 333 383 28,700 1,200 Climbing Denver Center
05:29PM 39.9625 -105.8628 281° West 328 377 29,900 1,080 Climbing Denver Center
05:30PM 39.9797 -105.9822 281° West 335 386 31,000 960 Climbing Denver Center
05:31PM 39.9975 -106.1036 281° West 341 392 31,900 960 Climbing Denver Center
05:32PM 40.0183 -106.2528 280° West 349 402 33,000 720 Climbing Denver Center
05:33PM 40.0353 -106.3792 280° West 355 409 33,500 420 Climbing Denver Center
05:34PM 40.0544 -106.5175 280° West 367 422 33,900 240 Climbing Denver Center
05:35PM 40.0736 -106.6547 280° West 379 436 34,000  Climbing Denver Center
05:36PM 40.0919 -106.7803 281° West 372 428 34,000  Level Denver Center
05:38PM 40.1103 -106.9256 279° West 365 420 34,000  Level Denver Center
05:39PM 40.1269 -107.0506 280° West 365 420 34,000  Level Denver Center
05:40PM 40.1447 -107.1783 280° West 371 427 34,000  Level Denver Center
05:41PM 40.1636 -107.3283 279° West 375 432 34,000  Level Denver Center
05:42PM 40.1800 -107.4569 280° West 376 433 34,000  Level Denver Center
05:43PM 40.2000 -107.6081 280° West 377 434 34,000  Level Denver Center
05:44PM 40.2158 -107.7389 279° West 380 437 34,000  Level Denver Center
05:45PM 40.2353 -107.8922 279° West 384 442 34,000  Level Denver Center
05:46PM 40.2517 -108.0244 279° West 385 443 34,000 240 Level Denver Center
05:47PM 40.2706 -108.1828 279° West 394 453 34,600 480 Climbing Denver Center
05:48PM 40.2878 -108.3178 280° West 394 453 35,100 600 Climbing Denver Center
05:49PM 40.3011 -108.4297 279° West 398 458 35,700 840 Climbing Salt Lake Center
05:50PM 40.3172 -108.5642 279° West 393 452 36,600 780 Climbing Salt Lake Center
05:51PM 40.3361 -108.6967 281° West 387 445 37,400 660 Climbing Salt Lake Center
05:52PM 40.3803 -108.8417 292° West 383 441 38,000 240 Climbing Salt Lake Center
05:53PM 40.3978 -108.9714 280° West 376 433 38,000  Level Salt Lake Center
05:54PM 40.4122 -109.1211 277° West 372 428 38,000  Level Salt Lake Center
05:55PM 40.4258 -109.2500 278° West 373 429 38,000  Level Salt Lake Center
05:56PM 40.4386 -109.3814 277° West 378 435 38,000  Level Salt Lake Center
05:57PM 40.4544 -109.5339 278° West 379 436 38,000  Level Salt Lake Center
05:58PM 40.4683 -109.6661 278° West 383 441 38,000  Level Salt Lake Center
05:59PM 40.4836 -109.8236 277° West 386 444 38,000  Level Salt Lake Center
06:00PM 40.4961 -109.9575 277° West 387 445 38,000  Level Salt Lake Center
06:01PM 40.5108 -110.0928 278° West 391 450 38,000  Level Salt Lake Center
06:02PM 40.5250 -110.2497 277° West 388 447 38,000  Level Salt Lake Center
06:03PM 40.5367 -110.3842 277° West 387 445 38,000  Level Salt Lake Center
06:04PM 40.5522 -110.5422 277° West 391 450 38,000  Level Salt Lake Center
06:05PM 40.5636 -110.6603 277° West 389 448 38,000  Level Salt Lake Center
06:06PM 40.5792 -110.8275 277° West 385 443 38,000  Level Salt Lake Center
06:07PM 40.5911 -110.9669 276° West 384 442 38,000  Level Salt Lake Center
06:08PM 40.6044 -111.1064 277° West 384 442 38,000  Level Salt Lake Center
06:09PM 40.6164 -111.2453 277° West 383 441 38,000  Level Salt Lake Center
06:10PM 40.6283 -111.3831 277° West 380 437 38,000  Level Salt Lake Center
06:11PM 40.6406 -111.5217 277° West 380 437 38,000  Level Salt Lake Center
06:12PM 40.6514 -111.6592 276° West 377 434 38,000  Level Salt Lake Center
06:13PM 40.6631 -111.7967 276° West 376 433 38,000  Level Salt Lake Center
06:14PM 40.6747 -111.9356 276° West 378 435 38,000  Level Salt Lake Center
06:15PM 40.6850 -112.0736 276° West 377 434 38,000  Level Salt Lake Center
06:16PM 40.6958 -112.2119 276° West 378 435 38,000  Level Salt Lake Center
06:17PM 40.7067 -112.3494 276° West 376 433 38,000  Level Salt Lake Center
06:18PM 40.7172 -112.4881 276° West 380 437 38,000  Level Salt Lake Center
06:19PM 40.7214 -112.6261 272° West 377 434 38,000  Level Salt Lake Center
06:20PM 40.7244 -112.7925 271° West 379 436 38,000  Level Salt Lake Center
06:21PM 40.7242 -112.9314 270° West 379 436 38,000  Level Salt Lake Center
06:22PM 40.7244 -113.0711 270° West 381 438 38,000  Level Salt Lake Center
06:23PM 40.7264 -113.2103 271° West 381 438 38,000  Level Salt Lake Center
06:24PM 40.7258 -113.3478 270° West 376 433 38,000  Level Salt Lake Center
06:25PM 40.7261 -113.4861 270° West 378 435 38,000  Level Salt Lake Center
06:26PM 40.7256 -113.6244 270° West 378 435 38,000  Level Salt Lake Center
06:27PM 40.7258 -113.7619 270° West 377 434 38,000  Level Salt Lake Center
06:28PM 40.7231 -113.9006 269° West 378 435 38,000  Level Salt Lake Center
06:29PM 40.7169 -114.0386 267° West 378 435 38,000  Level Salt Lake Center
06:30PM 40.7119 -114.1753 267° West 376 433 38,000  Level Salt Lake Center
06:31PM 40.7083 -114.3142 268° West 379 436 38,000  Level Salt Lake Center
06:32PM 40.7033 -114.4794 268° West 378 435 38,000  Level Salt Lake Center
06:33PM 40.6972 -114.6197 267° West 382 440 38,000  Level Salt Lake Center
06:34PM 40.6694 -114.7514 254° West 375 432 38,000  Level Salt Lake Center
06:35PM 40.6333 -114.8861 251° West 374 430 38,000  Level Salt Lake Center
06:36PM 40.6014 -115.0108 251° West 376 433 38,000  Level Salt Lake Center
06:37PM 40.5706 -115.1375 252° West 378 435 38,000  Level Salt Lake Center
06:38PM 40.5308 -115.2842 250° West 381 438 38,000  Level Salt Lake Center
06:39PM 40.5006 -115.4097 252° West 378 435 38,000  Level Salt Lake Center
06:41PM 40.4697 -115.5364 252° West 380 437 38,000  Level Salt Lake Center
06:42PM 40.4364 -115.6844 254° West 378 435 38,000  Level Salt Lake Center
06:43PM 40.4033 -115.8114 251° West 382 440 38,000  Level Salt Lake Center
06:44PM 40.3631 -115.9600 250° West 385 443 38,000  Level Salt Lake Center
06:45PM 40.3322 -116.0881 253° West 384 442 38,000  Level Salt Lake Center
06:46PM 40.2989 -116.2175 251° West 389 448 38,000  Level Salt Lake Center
06:47PM 40.2600 -116.3667 251° West 386 444 38,000  Level Salt Lake Center
06:48PM 40.2275 -116.4950 252° West 386 444 38,000  Level Salt Lake Center
06:49PM 40.1933 -116.6247 251° West 390 449 38,000  Level Salt Lake Center
06:50PM 40.1536 -116.7761 251° West 391 450 38,000  Level Salt Lake Center
06:51PM 40.1200 -116.9064 251° West 391 450 38,000  Level Salt Lake Center
06:52PM 40.0858 -117.0364 251° West 392 451 38,000  Level Salt Lake Center
06:53PM 40.0519 -117.1667 251° West 393 452 38,000  Level Salt Lake Center
06:54PM 40.0122 -117.3178 251° West 393 452 38,000  Level Salt Lake Center
06:55PM 39.9772 -117.4469 251° West 393 452 38,000  Level Salt Lake Center
06:56PM 39.9428 -117.5761 251° West 393 452 38,000  Level Salt Lake Center
06:57PM 39.9019 -117.7258 250° West 393 452 38,000  Level Salt Lake Center
06:58PM 39.8675 -117.8558 251° West 395 455 38,000  Level Salt Lake Center
06:59PM 39.8311 -117.9883 250° West 394 453 38,000  Level Salt Lake Center
07:00PM 39.7950 -118.1219 251° West 394 453 38,000  Level Salt Lake Center
07:01PM 39.7583 -118.2553 250° West 394 453 38,000  Level Salt Lake Center
07:02PM 39.7217 -118.3889 250° West 395 455 38,000  Level Salt Lake Center
07:03PM 39.6772 -118.5478 250° West 393 452 38,000  Level Salt Lake Center
07:04PM 39.6403 -118.6800 250° West 393 452 38,000  Level Salt Lake Center
07:05PM 39.6025 -118.8111 250° West 394 453 38,000 -300 Level Salt Lake Center
07:06PM 39.5653 -118.9431 250° West 396 456 37,400 -1,020 Descending Salt Lake Center
07:07PM 39.5128 -119.1264 250° West 391 450 35,600 -1,380 Descending Oakland Center
07:08PM 39.4750 -119.2556 249° West 385 443 34,200 -1,380 Descending Oakland Center
07:09PM 39.4378 -119.3825 249° West 380 437 32,800 -1,680 Descending Oakland Center
07:10PM 39.4028 -119.5064 250° West 371 427 30,900 -2,280 Descending Oakland Center
07:11PM 39.3628 -119.6397 249° West 377 434 28,200 -2,460 Descending Oakland Center
07:12PM 39.3294 -119.7558 250° West 369 425 25,900 -2,640 Descending Oakland Center
07:13PM 39.2883 -119.9008 250° West 360 414 22,900 -2,760 Descending Oakland Center
07:14PM 39.2536 -120.0175 249° West 349 402 20,400 -2,340 Descending Oakland Center
07:15PM 39.2208 -120.1325 250° West 342 394 18,200 -2,040 Descending Oakland Center
07:16PM 39.1919 -120.2264 248° West 323 372 16,300 -1,140 Descending Oakland Center
07:17PM 39.1614 -120.3333 250° West 319 367 15,900 -180 Descending Oakland Center
07:19PM 39.1347 -120.4414 252° West 317 365 16,000  Climbing Oakland Center
07:20PM 39.1075 -120.5500 252° West 318 366 15,900 -1,080 Descending Oakland Center
07:21PM 39.0733 -120.6794 251° West 319 367 13,900 -1,740 Descending Oakland Center
07:22PM 39.0461 -120.7872 252° West 317 365 12,400 -1,500 Descending Oakland Center
07:23PM 39.0194 -120.8936 252° West 315 362 10,900 -1,500 Descending Oakland Center
07:24PM 38.9928 -120.9886 250° West 288 331 9,400 -1,680 Descending Oakland Center
07:25PM 38.9494 -121.0664 234° Southwest 270 311 7,600 -1,800 Descending Oakland Center
07:26PM 38.9086 -121.1450 236° Southwest 266 306 5,800 -1,380 Descending Oakland Center
07:27PM 38.8850 -121.2322 251° West 264 304 4,900 -720 Descending Oakland Center
07:28PM 38.8675 -121.3222 256° West 262 302 4,400 -840 Descending Oakland Center
07:29PM 38.8628 -121.4136 266° West 259 298 3,200 -900 Descending Oakland Center
07:30PM 38.8378 -121.4825 245° Southwest 225 259 2,600 -780 Descending Oakland Center
07:31PM 38.7936 -121.5414 226° Southwest 196 226 1,700 -780 Descending Oakland Center
07:32PM 38.7586 -121.5789 220° Southwest 180 207 1,100 -720 Descending Oakland Center
07:33PM 38.7167 -121.5833 185° South 126 145 300 -840 Descending Northern Cal TRACON
07:36PM 38.6954 -121.5908 218° Southwest  Level Estimated